Airfield :
LOGIN :

Register | Disclaimer

   EN    FR    IT 

 










Legend :    VFR   Marginal VFR   IFR   Intensive IFR   Very Intensive IFR
Visi :
Ceiling :
>= 8 km
>= 3000ft
5 to 8 km
1000 to 3000 ft
1500m to 5 km
500 to 1000 ft
800 to 1500m
200 to 500 ft
< 800m
< 200 ft
Symbols :   Thunderstorms  Fog  Heavy snow  Heavy precipitations  Wind > 20 kt
SIGMETs :     Misc.  Thunderstorms  Icing  Turbulence  Mountain Waves  Volcanic Ashes






- Airport Elevation : 228 ft
- IATA code : OPO


LPPR - Porto Fr. Sa Carneiro

CURRENT METAR :
  • 100400Z 24006KT 200V270 9999 VCSH SCT020 FEW026CB SCT045 12/09 Q1009

EXPIRED METARs :
  • 100330Z 23006KT 200V270 9999 -SHRA SCT024 FEW026CB SCT045 13/09 Q1009
  • 100300Z 25004KT 220V300 9999 SCT024 FEW026TCU 14/10 Q1009
  • 100230Z 24005KT 9999 SCT024 FEW026TCU 14/09 Q1009
  • 100200Z 23005KT 210V270 9999 SCT024 FEW026TCU 14/10 Q1009
  • 100130Z 23004KT 9999 SCT024 13/10 Q1010

TAF TAF LPPR
Valid from the 10 at 00:00 until the 11 at 00:00 UTC


092300Z 1000/1024 VRB02KT 9999 SCT015 SCT025
TEMPO 1000/1024 5000 SHRA BKN012 FEW020CB
BECMG 1006/1008 22012KT
PROB40
TEMPO 1006/1018 VRB15G25KT 3000 TSRAGS SCT015CB
BECMG 1014/1017 30007KT



MET'MAP, your aeronautical weather chart ! - Copyright ORBIFLY December 2007 - Disclaimer

ORBIFLY MET'MAP TEAM :

Programming & Development : Alexandra Zaïnal
Concept & original design : Baudouin d'Aumeries
Assistance for programming : Marc-Olivier Méhu
Technical & hardware support : Manuel Goepfert

Contact : metmap@orbifly.com




SOURCES & CREDITS :

   NOAA